»·PEaware :: CAX550 KLAS-KSAN

CAX550 :: KLAS-KSAN

FLIGHT INFORMATION

Flight Status: Arrived
Operator:
California Airlines (website)
More flights by this operator :: More flights under this callsign
Pilot: Rodolfo A. (68)
Aircraft: SAAB 2000
(SB20)
More flights by this aircraft type
Origin: KLAS McCarran Intl
United States
Destination: KSAN San Diego Intl-Lindbergh
United States
More flights between these airports :: More routes between these airports
Route: BOACH4 TNP LYNDI3
File this flight plan on PilotEdge
Remarks: SAAB200O VIRTUAL AIRLINE FLIGHT TEST RNAV APPROACH
Altitude:
(Current/Filed)
22,000ft
Speed:
(Current/Filed)
300kts
Departed: 26-Oct-12 08:18 PM
Arrived: 26-Oct-12 09:11 PM
Distance/Time
Traveled:
225nm/0:53
Distance/Time
To Go:
Arrived

Flight Plot

Page will automatically refresh every two minutes.


Map Options




Map Legend


Flown Route
Filed Route
Departure Airport
Arrival Airport
Navaid (VOR, NDB)
Fix

Horizontal Profiles

Position Reports

Time Latitude Longitude Heading Altitude Ground
Speed
26-Oct-12 20:12 36.079534 -115.127121 90 2186ft 0kts
26-Oct-12 20:13 36.079534 -115.127121 90 2186ft 0kts
26-Oct-12 20:14 36.079534 -115.127121 90 2186ft 0kts
26-Oct-12 20:15 36.079534 -115.127121 90 2186ft 0kts
26-Oct-12 20:16 36.079484 -115.126109 126 2186ft 5kts
26-Oct-12 20:17 36.078349 -115.125723 114 2186ft 4kts
26-Oct-12 20:18 36.078256 -115.123381 87 2186ft 8kts
26-Oct-12 20:19 36.077436 -115.121543 139 2186ft 1kts
26-Oct-12 20:20 36.077046 -115.121337 171 2186ft 4kts
26-Oct-12 20:21 36.076421 -115.126880 269 2187ft 85kts
26-Oct-12 20:22 36.077072 -115.181679 268 2945ft 208kts
26-Oct-12 20:23 36.058104 -115.256852 210 4265ft 266kts
26-Oct-12 20:24 35.989656 -115.293092 200 6330ft 273kts
26-Oct-12 20:25 35.914431 -115.308432 185 8250ft 281kts
26-Oct-12 20:26 35.835470 -115.312470 175 10062ft 288kts
26-Oct-12 20:27 35.754724 -115.303488 174 11743ft 296kts
26-Oct-12 20:28 35.671821 -115.294944 180 13303ft 303kts
26-Oct-12 20:29 35.586880 -115.298418 181 14751ft 309kts
26-Oct-12 20:30 35.500029 -115.301858 181 16087ft 316kts
26-Oct-12 20:31 35.412816 -115.305303 181 17302ft 322kts
26-Oct-12 20:32 35.322551 -115.308861 181 18437ft 327kts
26-Oct-12 20:33 35.230836 -115.312469 181 19476ft 333kts
26-Oct-12 20:34 35.137614 -115.316128 181 20426ft 338kts
26-Oct-12 20:35 35.043506 -115.319813 181 21288ft 342kts
26-Oct-12 20:36 34.946970 -115.323583 181 21991ft 349kts
26-Oct-12 20:37 34.847387 -115.327462 181 22002ft 366kts
26-Oct-12 20:38 34.746458 -115.346409 198 22001ft 372kts
26-Oct-12 20:39 34.648874 -115.388864 199 22000ft 374kts
26-Oct-12 20:40 34.550822 -115.431697 199 22000ft 375kts
26-Oct-12 20:41 34.452614 -115.474489 199 22000ft 375kts
26-Oct-12 20:42 34.356815 -115.516134 199 22000ft 375kts
26-Oct-12 20:43 34.273041 -115.589173 222 22000ft 375kts
26-Oct-12 20:44 34.196497 -115.675244 223 22000ft 375kts
26-Oct-12 20:45 34.119467 -115.759914 214 21979ft 376kts
26-Oct-12 20:46 34.019977 -115.796896 193 22000ft 375kts
26-Oct-12 20:47 33.918657 -115.826638 193 22000ft 375kts
26-Oct-12 20:48 33.817233 -115.856316 193 22000ft 375kts
26-Oct-12 20:49 33.715734 -115.885944 193 22000ft 375kts
26-Oct-12 20:50 33.614285 -115.915486 193 22000ft 375kts
26-Oct-12 20:51 33.516058 -115.952486 218 20944ft 368kts
26-Oct-12 20:52 33.455022 -116.047638 235 19457ft 358kts
26-Oct-12 20:53 33.406191 -116.132214 235 18148ft 351kts
26-Oct-12 20:54 33.351038 -116.227036 234 16644ft 343kts
26-Oct-12 20:55 33.272683 -116.288093 206 15115ft 336kts
26-Oct-12 20:56 33.189898 -116.336649 206 14007ft 328kts
26-Oct-12 20:57 33.107546 -116.384780 206 14000ft 330kts
26-Oct-12 20:58 33.025076 -116.432878 206 14000ft 330kts
26-Oct-12 20:59 32.943350 -116.480199 205 13133ft 306kts
26-Oct-12 21:00 32.868799 -116.523268 205 11623ft 295kts
26-Oct-12 21:01 32.815192 -116.592503 239 10117ft 289kts
26-Oct-12 21:02 32.775464 -116.674573 240 8545ft 282kts
26-Oct-12 21:03 32.745684 -116.743230 242 7482ft 278kts
26-Oct-12 21:04 32.710982 -116.824045 244 5979ft 272kts
26-Oct-12 21:05 32.697153 -116.857773 244 5348ft 269kts
26-Oct-12 21:08 32.694592 -117.030079 286 3510ft 193kts
26-Oct-12 21:09 32.703707 -117.067704 286 2826ft 177kts
26-Oct-12 21:11 32.726783 -117.161314 285 514ft 130kts
26-Oct-12 21:12 32.731858 -117.182617 285 26ft 119kts
26-Oct-12 21:14 32.733140 -117.195825 224 22ft 1kts

Navigation Log

Ident Type
Flight plan parsing failed, navigation log unavailable